createdAt,value
2022-10-04T04:08:14.902Z,1.90
2022-10-04T04:11:28.356Z,1.87
2022-10-04T04:14:31.594Z,1.65
2022-10-04T04:17:38.191Z,1.50
2022-10-04T04:20:43.118Z,1.62
2022-10-04T04:23:59.712Z,2.10
2022-10-04T04:27:05.461Z,1.80
2022-10-04T04:30:15.934Z,1.70
2022-10-04T04:33:51.550Z,2.05
2022-10-04T04:36:59.590Z,1.77
2022-10-04T04:40:20.758Z,1.60
2022-10-04T04:43:27.947Z,1.48
2022-10-04T04:46:31.999Z,1.70
2022-10-04T04:49:39.824Z,1.90
2022-10-04T04:52:52.289Z,1.70
2022-10-04T04:56:03.799Z,1.70
2022-10-04T04:59:07.641Z,1.40
2022-10-04T05:02:35.119Z,1.95
2022-10-04T05:05:38.158Z,1.80
2022-10-04T05:08:50.519Z,1.58
2022-10-04T05:11:57.467Z,1.60
2022-10-04T05:15:00.452Z,1.55
2022-10-04T05:18:33.380Z,1.73
2022-10-04T05:21:48.904Z,1.60
2022-10-04T05:25:00.102Z,2.25
2022-10-04T05:28:03.175Z,2.08
2022-10-04T05:31:28.303Z,2.40
2022-10-04T05:34:36.740Z,1.42
2022-10-04T05:38:10.648Z,1.42
2022-10-04T05:41:36.558Z,1.50
2022-10-04T05:45:13.841Z,1.48
2022-10-04T05:48:18.474Z,1.30
2022-10-04T05:51:37.675Z,1.27
2022-10-04T05:54:40.667Z,1.23
2022-10-04T05:58:05.035Z,1.20
2022-10-04T06:01:45.885Z,1.42
2022-10-04T06:05:06.278Z,1.50
2022-10-04T14:39:16.262Z,1.62
2022-10-04T14:42:38.494Z,1.75
2022-10-04T14:46:16.764Z,1.80
2022-10-04T14:49:51.729Z,1.77
2022-10-04T14:52:57.985Z,1.70
2022-10-04T14:56:12.594Z,1.92
2022-10-04T14:59:22.703Z,1.90
2022-10-04T15:02:40.771Z,1.80
2022-10-04T15:06:06.779Z,1.90
2022-10-04T15:09:25.172Z,1.65
2022-10-04T15:12:51.797Z,1.87
2022-10-04T15:16:08.876Z,1.83
2022-10-04T15:19:20.824Z,2.10
2022-10-04T15:23:07.346Z,1.98
2022-10-04T15:26:36.237Z,1.90
2022-10-04T15:30:30.937Z,2.00
2022-10-04T15:33:45.667Z,1.92
2022-10-04T15:36:51.633Z,1.90
2022-10-04T15:40:22.499Z,1.90
2022-10-04T15:43:31.579Z,2.15
2022-10-04T15:46:43.856Z,1.70
2022-10-04T15:50:21.441Z,2.05
2022-10-04T15:54:03.290Z,2.10
2022-10-04T15:57:32.854Z,1.83
2022-10-04T16:01:04.175Z,2.30
2022-10-04T16:04:25.367Z,2.33
2022-10-04T16:07:41.638Z,2.20
2022-10-04T16:11:00.571Z,2.50
2022-10-04T16:14:22.065Z,2.03
2022-10-04T16:17:42.359Z,2.28
2022-10-04T16:21:06.299Z,2.25
2022-10-04T16:24:18.602Z,2.30
2022-10-04T16:27:27.139Z,2.40
2022-10-04T16:31:13.628Z,2.15
2022-10-04T16:34:34.226Z,2.87
2022-10-04T16:38:00.569Z,3.92
2022-10-04T16:41:29.279Z,3.35
2022-10-04T16:44:39.937Z,3.58
2022-10-04T16:47:48.861Z,4.70
2022-10-04T16:51:13.119Z,5.03
2022-10-04T16:54:42.352Z,4.90
2022-10-04T16:57:45.967Z,4.93
2022-10-04T17:00:49.872Z,6.32
2022-10-04T17:03:53.433Z,7.22
2022-10-04T17:07:14.587Z,9.82
2022-10-04T17:10:53.557Z,10.18
2022-10-04T17:14:07.440Z,8.63
2022-10-04T17:17:49.385Z,8.50
2022-10-04T17:20:59.014Z,8.93
2022-10-04T17:24:17.317Z,9.02
2022-10-04T17:27:56.603Z,9.32
2022-10-04T17:31:12.315Z,8.98
2022-10-04T17:34:51.160Z,7.72
2022-10-04T17:38:07.605Z,9.02
2022-10-04T17:41:41.160Z,8.88
2022-10-04T17:45:22.096Z,9.02
2022-10-04T17:48:47.788Z,8.05
2022-10-04T17:52:15.559Z,7.82
2022-10-04T17:55:35.829Z,7.28
2022-10-04T17:58:51.306Z,8.75
2022-10-04T18:02:03.147Z,6.97
2022-10-04T18:05:26.864Z,6.82
2022-10-04T18:08:46.597Z,5.68
2022-10-04T18:11:57.239Z,5.47
2022-10-04T18:15:28.769Z,5.53
2022-10-04T18:18:39.998Z,6.30
2022-10-04T18:21:51.767Z,5.78
2022-10-04T18:25:13.384Z,7.03
2022-10-04T18:28:21.818Z,7.93
2022-10-04T18:31:29.469Z,10.40
2022-10-04T18:34:35.465Z,8.23
2022-10-04T18:37:39.244Z,7.37
2022-10-04T18:40:52.893Z,6.60
2022-10-04T18:43:59.409Z,5.25
2022-10-04T18:47:02.437Z,6.03
2022-10-04T18:50:33.675Z,5.75
2022-10-04T18:53:46.132Z,5.53
2022-10-04T18:57:10.829Z,5.62
2022-10-04T19:00:33.590Z,5.15
2022-10-04T19:03:56.647Z,4.70
2022-10-04T19:07:37.552Z,4.87
2022-10-04T19:10:54.498Z,4.80
2022-10-04T19:14:11.019Z,5.03
2022-10-04T19:17:27.631Z,4.45
2022-10-04T19:20:44.409Z,5.53
2022-10-04T19:24:14.365Z,5.12
2022-10-04T19:27:26.492Z,5.25
2022-10-04T19:31:10.409Z,5.28
2022-10-04T19:34:54.710Z,5.60
2022-10-04T19:38:31.803Z,4.47
2022-10-04T19:41:46.505Z,4.35
2022-10-04T19:45:11.334Z,4.47
2022-10-04T19:48:25.777Z,4.57
2022-10-04T19:51:37.509Z,4.57
2022-10-04T19:54:40.375Z,5.65
2022-10-04T19:57:49.485Z,4.85
2022-10-04T20:00:53.389Z,5.97
2022-10-04T20:04:16.020Z,5.80
2022-10-04T20:07:23.409Z,4.70
2022-10-04T20:10:33.827Z,4.40
2022-10-04T20:13:36.551Z,4.30
2022-10-04T20:17:04.168Z,4.53
2022-10-04T20:20:08.016Z,4.80
2022-10-04T20:23:40.589Z,5.03
2022-10-04T20:26:56.781Z,7.07
2022-10-04T20:30:06.501Z,6.07
2022-10-04T20:33:10.082Z,6.95
2022-10-04T20:36:41.550Z,6.53
2022-10-04T20:39:47.291Z,4.97
2022-10-04T20:43:15.112Z,6.95
2022-10-04T20:46:25.735Z,6.60
2022-10-04T20:49:28.841Z,6.03
2022-10-04T20:52:33.710Z,5.55
2022-10-04T20:55:38.976Z,6.28
2022-10-04T20:58:41.778Z,7.30
2022-10-04T21:02:02.180Z,7.40
2022-10-04T21:05:18.045Z,14.15
2022-10-04T21:08:26.460Z,12.07
2022-10-04T21:11:44.731Z,8.88
2022-10-04T21:15:13.364Z,10.88
2022-10-04T21:18:23.956Z,7.78
2022-10-04T21:21:49.454Z,9.18
2022-10-04T21:25:25.762Z,8.65
2022-10-04T21:28:34.422Z,8.38
2022-10-04T21:31:37.207Z,6.90
2022-10-04T21:34:52.946Z,8.02
2022-10-04T21:37:58.978Z,9.32
2022-10-04T21:41:02.351Z,7.37
2022-10-04T21:44:04.998Z,6.97
2022-10-04T21:47:08.126Z,6.90
2022-10-04T21:50:10.917Z,6.43
2022-10-04T21:53:13.872Z,6.25
2022-10-04T21:56:16.542Z,6.22
2022-10-04T21:59:22.414Z,5.93
2022-10-04T22:02:25.097Z,5.57
2022-10-04T22:05:28.173Z,5.10
2022-10-04T22:08:30.826Z,5.57
2022-10-04T22:11:33.909Z,5.43
2022-10-04T22:14:36.564Z,5.10
2022-10-04T22:17:39.519Z,5.30
2022-10-04T22:20:42.520Z,5.47
2022-10-04T22:23:45.630Z,5.28
2022-10-04T22:26:48.948Z,5.20
2022-10-04T22:29:55.431Z,4.97
2022-10-04T22:33:00.669Z,5.30
2022-10-04T22:36:21.742Z,4.82
2022-10-04T22:39:25.274Z,4.70
2022-10-04T22:42:31.738Z,4.60
2022-10-04T22:45:34.413Z,4.60
2022-10-04T22:48:37.387Z,4.05
2022-10-04T22:51:41.433Z,4.60
2022-10-04T22:54:47.378Z,4.78
2022-10-04T22:57:50.430Z,4.45
2022-10-04T23:00:55.214Z,5.05
2022-10-04T23:03:58.451Z,4.90
2022-10-04T23:07:01.356Z,4.32
2022-10-04T23:10:04.403Z,4.95
2022-10-04T23:13:07.451Z,4.82
2022-10-04T23:16:12.327Z,5.20
2022-10-04T23:19:20.633Z,4.80
2022-10-04T23:22:27.819Z,5.40
2022-10-04T23:25:31.277Z,5.45
2022-10-04T23:28:34.077Z,5.82
2022-10-04T23:31:37.403Z,5.32
2022-10-04T23:34:45.974Z,5.40
2022-10-04T23:37:49.917Z,6.78
2022-10-04T23:40:54.126Z,5.53
2022-10-04T23:43:57.172Z,5.45
2022-10-04T23:47:00.458Z,5.65
2022-10-04T23:50:19.781Z,5.53
2022-10-04T23:53:31.890Z,5.28
2022-10-04T23:56:35.187Z,5.85
2022-10-04T23:59:39.726Z,6.03
